Time;durP1;ratioP1;P1;durP2;ratioP2;P2;SDS_P1;SDS_P2;PMS_P1;PMS_P2;Temp;Humidity;BMP_temperature;BMP_pressure;BME280_temperature;BME280_humidity;BME280_pressure;Samples;Min_cycle;Max_cycle;Signal;HPM_P1;HPM_P2
2021/04/02 00:01:27;;;;;;;11.18;6.95;;;461.20;1484.80;;;;;;4921052;29;20099;-74
2021/04/02 00:03:53;;;;;;;11.73;6.82;;;461.10;1510.40;;;;;;4932311;29;20038;-73
2021/04/02 00:06:19;;;;;;;11.63;6.63;;;461.20;1484.80;;;;;;4919129;29;20036;-74
2021/04/02 00:08:45;;;;;;;10.35;6.40;;;461.20;1484.80;;;;;;4917912;29;20718;-73
2021/04/02 00:11:12;;;;;;;11.70;6.80;;;461.20;1484.80;;;;;;4920705;29;20021;-74
2021/04/02 00:13:41;;;;;;;13.27;6.35;;;461.20;1484.80;;;;;;4934674;29;20035;-73
2021/04/02 00:16:09;;;;;;;10.73;6.80;;;461.20;1484.80;;;;;;4927507;29;20513;-73
2021/04/02 00:18:35;;;;;;;14.32;7.22;;;461.20;1484.80;;;;;;4919597;29;20028;-73
2021/04/02 00:21:04;;;;;;;11.93;6.30;;;461.10;1459.20;;;;;;4921781;29;20028;-73
2021/04/02 00:23:30;;;;;;;12.63;5.78;;;461.10;1484.80;;;;;;4934011;29;20381;-72
2021/04/02 00:25:56;;;;;;;8.93;5.68;;;461.10;1484.80;;;;;;4928219;29;20039;-73
2021/04/02 00:28:21;;;;;;;9.55;5.80;;;461.10;1459.20;;;;;;4928382;29;20036;-74
2021/04/02 00:30:52;;;;;;;8.57;5.40;;;461.10;1459.20;;;;;;4922054;29;20030;-73
2021/04/02 00:33:20;;;;;;;8.25;4.97;;;461.10;1459.20;;;;;;4935435;29;20042;-74
2021/04/02 00:35:46;;;;;;;6.55;4.85;;;461.10;1459.20;;;;;;4922122;29;20576;-74
2021/04/02 00:38:12;;;;;;;12.30;4.70;;;461.10;1459.20;;;;;;4925366;29;20056;-74
2021/04/02 00:40:44;;;;;;;12.57;5.22;;;461.10;1459.20;;;;;;4929869;29;20209;-73
2021/04/02 00:43:13;;;;;;;8.65;4.93;;;461.10;1459.20;;;;;;4925159;29;20029;-73
2021/04/02 00:45:39;;;;;;;10.02;4.93;;;461.10;1459.20;;;;;;4917478;29;20031;-73
2021/04/02 00:48:06;;;;;;;6.15;4.75;;;461.10;1459.20;;;;;;4923108;29;20099;-73
2021/04/02 00:50:49;;;;;;;11.13;4.97;;;461.10;1459.20;;;;;;4921860;29;20026;-73
2021/04/02 00:53:17;;;;;;;9.57;4.82;;;461.10;1433.60;;;;;;4926850;29;20398;-74
2021/04/02 00:55:43;;;;;;;7.60;5.25;;;461.20;1459.20;;;;;;4926847;29;20102;-73
2021/04/02 00:58:13;;;;;;;7.40;4.93;;;461.10;1459.20;;;;;;4916354;29;20071;-73
2021/04/02 01:00:39;;;;;;;7.50;4.80;;;461.20;1433.60;;;;;;4919183;29;20036;-72
2021/04/02 01:03:05;;;;;;;8.88;4.28;;;461.20;1433.60;;;;;;4916436;29;20031;-73
2021/04/02 01:05:35;;;;;;;8.25;4.78;;;461.20;1433.60;;;;;;4923707;29;20024;-73
2021/04/02 01:08:05;;;;;;;6.97;4.40;;;461.20;1459.20;;;;;;4919981;29;20024;-74
2021/04/02 01:10:31;;;;;;;8.98;4.32;;;461.20;1433.60;;;;;;4935000;29;20093;-74
2021/04/02 01:13:11;;;;;;;8.13;4.65;;;461.30;1433.60;;;;;;4932898;29;20035;-73
2021/04/02 01:15:57;;;;;;;7.05;4.50;;;461.30;1459.20;;;;;;4923342;29;20133;-74
2021/04/02 01:19:03;;;;;;;8.05;4.82;;;461.30;1433.60;;;;;;4953730;28;20408;-73
2021/04/02 01:21:44;;;;;;;6.40;4.50;;;461.30;1433.60;;;;;;4902159;29;20555;-74
2021/04/02 01:24:12;;;;;;;6.03;4.30;;;461.30;1459.20;;;;;;4895519;29;20047;-74
2021/04/02 01:26:53;;;;;;;5.93;4.30;;;461.30;1459.20;;;;;;4894932;29;20033;-73
2021/04/02 01:29:33;;;;;;;7.05;4.40;;;461.30;1459.20;;;;;;4885243;29;20530;-73
2021/04/02 01:32:01;;;;;;;171.57;14.32;;;461.30;1459.20;;;;;;4895609;29;20837;-74
2021/04/02 01:34:33;;;;;;;36.22;9.10;;;461.00;1510.40;;;;;;4894722;29;20120;-74
2021/04/02 01:37:06;;;;;;;27.50;9.48;;;460.80;1536.00;;;;;;4894972;29;20140;-75
2021/04/02 01:39:34;;;;;;;56.47;10.80;;;;;;;;;;4894810;29;20021;-74
2021/04/02 01:42:02;;;;;;;36.33;9.15;;;435.90;1561.60;;;;;;4895982;29;20565;-73
2021/04/02 01:44:33;;;;;;;23.85;9.00;;;435.70;1587.20;;;;;;4894904;29;20897;-74
2021/04/02 01:47:00;;;;;;;16.60;8.38;;;435.40;1612.80;;;;;;4903287;29;20043;-73
2021/04/02 01:49:28;;;;;;;26.58;8.82;;;435.30;1792.00;;;;;;4895299;29;20041;-74
2021/04/02 01:51:54;;;;;;;20.13;8.73;;;410.50;1715.20;;;;;;4894370;29;20057;-75
2021/04/02 01:54:22;;;;;;;23.95;8.25;;;410.50;1894.40;;;;;;4897165;29;20180;-73
2021/04/02 01:56:52;;;;;;;14.77;8.65;;;410.40;1740.80;;;;;;4944025;29;20134;-72
2021/04/02 01:59:20;;;;;;;13.65;6.95;;;410.30;1766.40;;;;;;4949811;29;20047;-74
2021/04/02 02:01:48;;;;;;;13.15;6.15;;;410.40;1766.40;;;;;;4944868;28;20486;-75
2021/04/02 02:04:18;;;;;;;14.50;6.72;;;410.30;1792.00;;;;;;4950940;28;20035;-75
2021/04/02 02:06:46;;;;;;;11.73;6.10;;;410.30;1792.00;;;;;;4953676;28;20023;-73
2021/04/02 02:09:17;;;;;;;12.63;5.68;;;410.40;1792.00;;;;;;4946858;29;20027;-75
2021/04/02 02:11:46;;;;;;;12.30;5.72;;;410.50;1792.00;;;;;;4953202;29;20035;-73
2021/04/02 02:14:14;;;;;;;8.60;5.25;;;435.20;1766.40;;;;;;4950920;29;20393;-74
2021/04/02 02:16:42;;;;;;;8.38;5.25;;;435.20;1792.00;;;;;;4942342;28;20052;-74
2021/04/02 02:19:20;;;;;;;6.78;4.38;;;435.20;1792.00;;;;;;4949416;29;20031;-74
2021/04/02 02:21:51;;;;;;;11.15;4.32;;;435.20;1792.00;;;;;;4953862;28;20396;-71
2021/04/02 02:24:18;;;;;;;8.13;4.20;;;410.50;1792.00;;;;;;4934599;29;20028;-74
2021/04/02 02:26:44;;;;;;;10.50;4.72;;;435.20;1817.60;;;;;;4942930;29;20478;-74
2021/04/02 02:29:12;;;;;;;11.05;4.55;;;410.50;1817.60;;;;;;4951399;29;20024;-73
2021/04/02 02:31:38;;;;;;;8.43;4.20;;;410.50;1868.80;;;;;;4949274;29;20033;-72
2021/04/02 02:34:06;;;;;;;10.25;4.32;;;410.20;1996.80;;;;;;4947333;29;20055;-73
2021/04/02 02:36:33;;;;;;;12.50;4.70;;;410.00;2201.60;;;;;;4939613;29;20053;-73
2021/04/02 02:38:59;;;;;;;11.90;4.07;;;;;;;;;;4937734;29;20480;-72
2021/04/02 02:41:26;;;;;;;11.75;4.18;;;;;;;;;;4948578;29;21687;-74
2021/04/02 02:43:53;;;;;;;15.15;4.28;;;410.20;2355.20;;;;;;4955768;29;20027;-73
2021/04/02 02:46:19;;;;;;;10.13;4.65;;;;;;;;;;4951876;29;20032;-74
2021/04/02 02:48:47;;;;;;;9.48;4.30;;;;;;;;;;4953692;29;20035;-70
2021/04/02 02:51:13;;;;;;;13.02;4.60;;;;;;;;;;4951486;29;20732;-71
2021/04/02 02:53:40;;;;;;;9.43;4.43;;;;;;;;;;4942443;29;20039;-70
2021/04/02 02:56:07;;;;;;;11.98;4.72;;;;;;;;;;4947777;29;20043;-75
2021/04/02 02:58:33;;;;;;;9.38;4.30;;;;;;;;;;4952467;29;20110;-75
2021/04/02 03:01:00;;;;;;;11.52;4.82;;;;;;;;;;4950996;29;20050;-74
2021/04/02 03:03:26;;;;;;;11.88;5.30;;;;;;;;;;4945056;29;20027;-75
2021/04/02 03:05:53;;;;;;;8.48;5.15;;;384.80;2329.60;;;;;;4942383;29;20024;-74
2021/04/02 03:08:22;;;;;;;6.90;4.68;;;384.70;2329.60;;;;;;4941190;29;20032;-75
2021/04/02 03:10:48;;;;;;;7.97;4.53;;;;;;;;;;4937843;29;20032;-74
2021/04/02 03:13:22;;;;;;;8.20;4.40;;;384.70;2329.60;;;;;;4939055;29;20027;-74
2021/04/02 03:15:50;;;;;;;7.38;5.00;;;384.60;2329.60;;;;;;4947343;29;20047;-75
2021/04/02 03:18:18;;;;;;;7.57;5.18;;;384.20;2329.60;;;;;;4946639;28;20015;-75
2021/04/02 03:20:46;;;;;;;8.77;4.80;;;384.00;2329.60;;;;;;4962436;28;20590;-74
2021/04/02 03:23:15;;;;;;;6.93;4.75;;;384.30;2329.60;;;;;;4937171;29;20028;-76
2021/04/02 03:25:42;;;;;;;10.00;4.90;;;384.40;2329.60;;;;;;4949911;29;20158;-75
2021/04/02 03:28:12;;;;;;;8.48;4.75;;;384.50;2329.60;;;;;;4944088;28;20071;-75
2021/04/02 03:30:39;;;;;;;7.65;4.88;;;384.70;2329.60;;;;;;4963375;28;20537;-74
2021/04/02 03:33:29;;;;;;;8.60;4.80;;;384.80;2329.60;;;;;;4938569;29;20053;-74
2021/04/02 03:35:58;;;;;;;8.85;5.40;;;409.60;2355.20;;;;;;4951691;29;20142;-73
2021/04/02 03:38:29;;;;;;;7.22;5.43;;;409.60;2355.20;;;;;;4944265;29;20016;-74
2021/04/02 03:40:56;;;;;;;7.30;5.18;;;409.60;2355.20;;;;;;4950594;29;20055;-74
2021/04/02 03:43:25;;;;;;;6.45;5.25;;;409.70;2355.20;;;;;;4955640;29;20035;-73
2021/04/02 03:45:52;;;;;;;6.40;5.35;;;409.80;2355.20;;;;;;4941602;29;20027;-73
2021/04/02 03:48:19;;;;;;;10.02;6.35;;;409.80;2355.20;;;;;;4954197;29;20027;-75
2021/04/02 03:50:52;;;;;;;9.25;5.53;;;409.60;2355.20;;;;;;4945990;29;20102;-73
2021/04/02 03:53:32;;;;;;;6.45;5.72;;;409.60;2355.20;;;;;;4941543;29;20027;-72
2021/04/02 03:56:00;;;;;;;8.20;5.35;;;409.60;2355.20;;;;;;4932476;29;20048;-73
2021/04/02 03:58:26;;;;;;;9.68;5.55;;;384.90;2329.60;;;;;;4936409;29;20032;-76
2021/04/02 04:01:14;;;;;;;11.48;6.35;;;384.50;2329.60;;;;;;4941385;29;20034;-73
2021/04/02 04:03:44;;;;;;;10.70;6.20;;;384.00;2329.60;;;;;;4940278;29;20023;-73
2021/04/02 04:06:15;;;;;;;8.63;5.65;;;384.00;2329.60;;;;;;4950506;29;20114;-76
2021/04/02 04:08:44;;;;;;;9.38;6.28;;;359.30;2329.60;;;;;;4940323;29;20114;-75
2021/04/02 04:11:11;;;;;;;9.93;6.82;;;384.00;2329.60;;;;;;4940495;29;20031;-72
2021/04/02 04:13:40;;;;;;;9.20;6.47;;;384.20;2329.60;;;;;;4956651;28;20025;-74
2021/04/02 04:16:08;;;;;;;9.80;6.90;;;384.00;2329.60;;;;;;4953452;29;20130;-75
2021/04/02 04:18:35;;;;;;;10.88;6.60;;;384.20;2329.60;;;;;;4948458;29;20112;-77
2021/04/02 04:21:06;;;;;;;9.05;5.88;;;384.40;2329.60;;;;;;4938119;29;20040;-75
2021/04/02 04:23:34;;;;;;;8.98;6.38;;;384.30;2329.60;;;;;;4949193;29;20027;-74
2021/04/02 04:26:00;;;;;;;11.23;7.32;;;384.30;2329.60;;;;;;4945473;29;20061;-74
2021/04/02 04:28:28;;;;;;;9.98;7.82;;;384.40;2329.60;;;;;;4942857;29;20020;-74
2021/04/02 04:30:58;;;;;;;10.50;6.75;;;384.30;2329.60;;;;;;4944436;29;20023;-73
2021/04/02 04:33:25;;;;;;;9.60;6.38;;;384.30;2329.60;;;;;;4936633;29;20039;-76
2021/04/02 04:35:52;;;;;;;9.57;6.30;;;384.40;2329.60;;;;;;4954187;29;20050;-73
2021/04/02 04:38:20;;;;;;;10.88;6.40;;;384.50;2329.60;;;;;;4944647;29;20469;-72
2021/04/02 04:40:46;;;;;;;8.82;6.32;;;384.50;2329.60;;;;;;4948176;29;20031;-74
2021/04/02 04:43:14;;;;;;;8.93;6.90;;;384.50;2329.60;;;;;;4945630;29;20023;-73
2021/04/02 04:45:40;;;;;;;9.23;5.82;;;384.50;2329.60;;;;;;4943561;28;20379;-74
2021/04/02 04:48:07;;;;;;;10.00;5.50;;;384.60;2329.60;;;;;;4932741;29;20105;-75
2021/04/02 04:50:33;;;;;;;7.97;5.45;;;384.70;2329.60;;;;;;4943009;28;20142;-73
2021/04/02 04:53:05;;;;;;;7.60;5.30;;;384.80;2329.60;;;;;;4956209;28;20504;-74
2021/04/02 04:55:34;;;;;;;10.05;6.43;;;384.90;2329.60;;;;;;4940919;28;20050;-73
2021/04/02 04:58:01;;;;;;;7.55;5.82;;;384.60;2329.60;;;;;;4947295;28;20024;-74
2021/04/02 05:00:30;;;;;;;9.65;6.50;;;384.60;2329.60;;;;;;4941931;29;20149;-74
2021/04/02 05:02:57;;;;;;;12.18;7.10;;;384.60;2329.60;;;;;;4931247;29;20028;-74
2021/04/02 05:05:39;;;;;;;10.25;6.60;;;384.60;2329.60;;;;;;4927335;29;20027;-74
2021/04/02 05:08:06;;;;;;;9.25;6.47;;;384.70;2329.60;;;;;;4939116;29;20370;-74
2021/04/02 05:10:34;;;;;;;9.95;6.32;;;384.70;2329.60;;;;;;4947186;29;20405;-73
2021/04/02 05:13:02;;;;;;;9.40;6.70;;;384.90;2329.60;;;;;;4951706;29;20031;-79
2021/04/02 05:15:28;;;;;;;10.50;6.85;;;384.90;2329.60;;;;;;4938761;29;20055;-76
2021/04/02 05:17:55;;;;;;;11.45;7.05;;;409.60;2355.20;;;;;;4947414;28;20547;-81
2021/04/02 05:20:39;;;;;;;9.57;6.18;;;409.80;2355.20;;;;;;4953397;29;20061;-78
2021/04/02 05:23:05;;;;;;;9.00;6.25;;;409.90;2355.20;;;;;;4946684;29;20043;-80
2021/04/02 05:25:30;;;;;;;8.45;5.30;;;410.30;2355.20;;;;;;4935822;28;20070;-79
2021/04/02 05:27:56;;;;;;;6.82;4.53;;;410.10;2355.20;;;;;;4951769;28;20172;-77
2021/04/02 05:30:22;;;;;;;6.03;4.25;;;435.30;2355.20;;;;;;4943021;29;20091;-79
2021/04/02 05:32:48;;;;;;;8.60;5.53;;;435.70;2355.20;;;;;;4950401;29;20383;-75
2021/04/02 05:35:14;;;;;;;7.47;5.60;;;435.80;2355.20;;;;;;4934459;29;20459;-77
2021/04/02 05:37:39;;;;;;;9.48;5.75;;;435.80;2355.20;;;;;;4935565;29;20028;-75
2021/04/02 05:40:06;;;;;;;12.23;6.80;;;435.70;2355.20;;;;;;4953226;29;20772;-84
2021/04/02 05:42:35;;;;;;;12.05;7.28;;;435.50;2355.20;;;;;;4952358;29;20033;-75
2021/04/02 05:45:02;;;;;;;11.00;8.75;;;435.40;2355.20;;;;;;4952572;29;20393;-75
2021/04/02 05:47:30;;;;;;;14.68;9.70;;;435.40;2355.20;;;;;;4928221;29;20039;-81
2021/04/02 05:50:00;;;;;;;12.70;8.93;;;435.20;2355.20;;;;;;4940432;28;20078;-78
2021/04/02 05:52:31;;;;;;;11.23;8.90;;;410.50;2355.20;;;;;;4947912;29;20038;-78
2021/04/02 05:55:00;;;;;;;16.17;10.05;;;410.40;2355.20;;;;;;4949889;29;20482;-72
2021/04/02 05:57:26;;;;;;;14.27;8.48;;;435.20;2355.20;;;;;;4950040;28;20035;-78
2021/04/02 05:59:53;;;;;;;11.65;8.98;;;435.20;2355.20;;;;;;4945586;28;20489;-75
2021/04/02 06:02:19;;;;;;;12.57;8.70;;;435.20;2355.20;;;;;;4956781;29;20042;-77
2021/04/02 06:04:45;;;;;;;12.02;7.53;;;435.20;2355.20;;;;;;4949019;29;20035;-77
2021/04/02 06:07:11;;;;;;;15.43;7.90;;;435.20;2355.20;;;;;;4952645;29;20373;-79
2021/04/02 06:09:37;;;;;;;17.40;8.85;;;435.30;2355.20;;;;;;4954742;28;20027;-76
2021/04/02 06:12:03;;;;;;;17.38;7.95;;;435.30;2355.20;;;;;;4952081;29;20035;-78
2021/04/02 06:14:29;;;;;;;16.10;8.75;;;410.50;2355.20;;;;;;4952947;29;20512;-75
2021/04/02 06:16:55;;;;;;;19.98;8.85;;;410.40;2355.20;;;;;;4955856;29;20106;-82
2021/04/02 06:19:21;;;;;;;16.13;8.88;;;410.40;2355.20;;;;;;4955469;28;20387;-77
2021/04/02 06:21:57;;;;;;;22.80;10.50;;;410.40;2355.20;;;;;;4956811;29;20114;-77
2021/04/02 06:24:43;;;;;;;22.80;9.40;;;410.50;2355.20;;;;;;4947503;29;20034;-80
2021/04/02 06:27:13;;;;;;;28.35;11.13;;;410.50;2355.20;;;;;;4952691;29;20023;-78
2021/04/02 06:30:01;;;;;;;14.93;7.97;;;410.50;2355.20;;;;;;4951055;28;20179;-73
2021/04/02 06:32:35;;;;;;;13.05;6.57;;;410.50;2355.20;;;;;;4953051;29;20041;-77
2021/04/02 06:35:09;;;;;;;36.03;16.88;;;410.50;2355.20;;;;;;4951446;29;20070;-77
2021/04/02 06:37:36;;;;;;;26.85;13.25;;;410.30;2355.20;;;;;;4949509;29;20629;-74
2021/04/02 06:40:24;;;;;;;21.38;11.40;;;410.40;2355.20;;;;;;4953682;29;20057;-73
2021/04/02 06:42:50;;;;;;;22.77;12.02;;;410.40;2355.20;;;;;;4952185;29;20152;-73
2021/04/02 06:45:18;;;;;;;43.17;24.15;;;410.30;2355.20;;;;;;4938394;29;20047;-77
2021/04/02 06:47:45;;;;;;;29.98;16.23;;;410.30;2355.20;;;;;;4954925;29;20107;-77
2021/04/02 06:50:21;;;;;;;48.83;12.02;;;410.30;2355.20;;;;;;4950701;29;20019;-72
2021/04/02 06:52:57;;;;;;;20.05;8.02;;;410.20;2355.20;;;;;;4941640;29;20028;-70
2021/04/02 06:55:25;;;;;;;18.33;8.10;;;410.00;2355.20;;;;;;4950271;29;20050;-71
2021/04/02 06:57:53;;;;;;;16.25;8.32;;;410.10;2355.20;;;;;;4937517;29;20030;-71
2021/04/02 07:00:24;;;;;;;14.48;7.78;;;410.10;2355.20;;;;;;4951174;29;20118;-71
2021/04/02 07:02:51;;;;;;;15.18;7.35;;;410.00;2355.20;;;;;;4945811;28;20536;-75
2021/04/02 07:05:19;;;;;;;14.82;8.13;;;410.10;2355.20;;;;;;4955311;29;20366;-67
2021/04/02 07:07:48;;;;;;;14.68;9.13;;;409.90;2355.20;;;;;;4954405;29;20027;-73
2021/04/02 07:10:14;;;;;;;13.52;8.65;;;410.00;2355.20;;;;;;4949245;29;20022;-76
2021/04/02 07:12:45;;;;;;;14.05;8.88;;;409.90;2355.20;;;;;;4952221;28;20031;-76
2021/04/02 07:15:12;;;;;;;11.95;8.95;;;410.00;2355.20;;;;;;4951753;29;20497;-76
2021/04/02 07:17:38;;;;;;;19.42;9.93;;;410.10;2355.20;;;;;;4939863;29;20118;-78
2021/04/02 07:20:05;;;;;;;14.63;9.88;;;410.50;2355.20;;;;;;4937164;29;20111;-75
2021/04/02 07:22:32;;;;;;;15.63;9.15;;;435.70;2355.20;;;;;;4941778;29;20493;-76
2021/04/02 07:24:59;;;;;;;16.38;9.82;;;436.10;2355.20;;;;;;4953266;28;20031;-71
2021/04/02 07:27:27;;;;;;;13.27;8.82;;;461.20;2380.80;;;;;;4955680;29;20062;-77
2021/04/02 07:29:54;;;;;;;14.20;9.05;;;;;;;;;;4952982;29;20039;-75
2021/04/02 07:32:20;;;;;;;25.30;12.20;;;486.40;2176.00;;;;;;4941639;29;20493;-75
2021/04/02 07:34:47;;;;;;;14.35;8.60;;;;;;;;;;4963158;28;20158;-78
2021/04/02 07:37:13;;;;;;;15.45;8.88;;;;;;;;;;4941452;28;20107;-79
2021/04/02 07:39:39;;;;;;;16.20;9.07;;;;;;;;;;4947231;28;20075;-77
2021/04/02 07:42:05;;;;;;;22.45;9.57;;;;;;;;;;4934924;29;20151;-76
2021/04/02 07:44:43;;;;;;;15.25;9.50;;;512.10;1996.80;;;;;;4948185;28;20461;-74
2021/04/02 07:47:10;;;;;;;17.45;8.35;;;;;;;;;;4949583;29;20039;-77
2021/04/02 07:49:54;;;;;;;13.55;8.77;;;;;;;;;;4932164;29;20075;-80
2021/04/02 07:52:38;;;;;;;12.70;8.52;;;;;;;;;;4948669;28;20035;-78
2021/04/02 07:55:10;;;;;;;15.45;8.55;;;;;;;;;;4949986;29;20031;-76
2021/04/02 07:57:53;;;;;;;13.55;7.97;;;486.90;1971.20;;;;;;4947335;28;20404;-78
2021/04/02 08:00:22;;;;;;;15.13;8.50;;;486.80;2022.40;;;;;;4942067;29;20567;-78
2021/04/02 08:03:15;;;;;;;15.15;8.50;;;486.70;2022.40;;;;;;4954503;28;20039;-75
2021/04/02 08:06:06;;;;;;;11.45;7.80;;;486.80;2022.40;;;;;;4950341;29;20027;-74
2021/04/02 08:08:48;;;;;;;12.50;7.65;;;487.10;1996.80;;;;;;4950116;28;20103;-75
2021/04/02 08:11:23;;;;;;;12.68;7.30;;;512.00;1971.20;;;;;;4949955;29;20512;-73
2021/04/02 08:13:51;;;;;;;13.00;7.50;;;512.30;1894.40;;;;;;4946587;29;20248;-74
2021/04/02 08:16:43;;;;;;;10.05;6.90;;;;;;;;;;4948857;29;20048;-74
2021/04/02 08:19:11;;;;;;;13.05;7.07;;;;;;;;;;4950876;28;20051;-76
2021/04/02 08:21:39;;;;;;;20.80;11.18;;;538.00;1792.00;;;;;;4956502;28;20031;-76
2021/04/02 08:24:08;;;;;;;15.23;8.60;;;538.00;1792.00;;;;;;4945612;29;20035;-79
2021/04/02 08:26:35;;;;;;;19.02;9.68;;;537.90;1792.00;;;;;;4952600;29;20051;-77
2021/04/02 08:29:03;;;;;;;25.73;10.85;;;537.70;1817.60;;;;;;4951489;28;20031;-75
2021/04/02 08:31:29;;;;;;;17.50;9.98;;;512.90;1843.20;;;;;;4940237;29;20027;-74
2021/04/02 08:33:58;;;;;;;18.63;9.60;;;512.60;1843.20;;;;;;4943024;29;20039;-75
2021/04/02 08:36:28;;;;;;;19.67;10.73;;;512.60;1843.20;;;;;;4939486;29;20043;-75
2021/04/02 08:38:55;;;;;;;18.48;11.75;;;512.50;1843.20;;;;;;4954111;28;20059;-76
2021/04/02 08:41:24;;;;;;;23.55;11.75;;;512.20;1817.60;;;;;;4943562;28;20028;-78
2021/04/02 08:43:50;;;;;;;25.60;10.38;;;512.10;1843.20;;;;;;4951865;28;20102;-77
2021/04/02 08:46:17;;;;;;;15.45;9.30;;;512.00;1894.40;;;;;;4950425;29;20100;-72
2021/04/02 08:48:47;;;;;;;17.95;10.52;;;487.10;1894.40;;;;;;4951131;28;20042;-71
2021/04/02 08:51:21;;;;;;;18.80;9.63;;;486.90;1868.80;;;;;;4956157;28;20031;-75
2021/04/02 08:53:51;;;;;;;22.63;13.00;;;486.90;1920.00;;;;;;4948687;28;20086;-80
2021/04/02 08:56:19;;;;;;;34.88;21.38;;;486.90;1920.00;;;;;;4953188;29;20457;-76
2021/04/02 08:58:46;;;;;;;30.67;16.67;;;486.80;1920.00;;;;;;4956629;28;20053;-75
2021/04/02 09:01:20;;;;;;;23.77;11.98;;;486.80;1920.00;;;;;;4947607;28;20025;-74
2021/04/02 09:03:46;;;;;;;20.63;11.73;;;486.70;1945.60;;;;;;4955369;28;20031;-76
2021/04/02 09:06:13;;;;;;;20.05;10.57;;;486.70;1945.60;;;;;;4948008;28;20019;-75
2021/04/02 09:08:39;;;;;;;18.42;10.45;;;486.60;1996.80;;;;;;4952771;28;20038;-76
2021/04/02 09:11:09;;;;;;;17.85;11.05;;;486.70;1971.20;;;;;;4952346;28;20023;-78
2021/04/02 09:13:37;;;;;;;15.85;10.88;;;486.70;1971.20;;;;;;4946285;29;20393;-74
2021/04/02 09:16:07;;;;;;;19.27;10.65;;;486.70;1996.80;;;;;;4944498;29;20059;-75
2021/04/02 09:18:33;;;;;;;20.25;11.13;;;486.60;1996.80;;;;;;4950856;29;20019;-72
2021/04/02 09:21:00;;;;;;;18.33;10.93;;;486.60;1971.20;;;;;;4930095;29;20063;-80
2021/04/02 09:23:26;;;;;;;16.60;11.60;;;486.60;1971.20;;;;;;4937573;29;20023;-78
2021/04/02 09:25:53;;;;;;;19.65;11.70;;;486.60;1971.20;;;;;;4945583;29;20492;-77
2021/04/02 09:28:23;;;;;;;17.92;11.75;;;486.70;1971.20;;;;;;4953335;29;20098;-77
2021/04/02 09:30:49;;;;;;;18.88;11.48;;;486.80;1971.20;;;;;;4934195;28;20441;-76
2021/04/02 09:33:19;;;;;;;16.70;11.10;;;486.80;1971.20;;;;;;4952331;28;20046;-75
2021/04/02 09:35:46;;;;;;;17.98;10.88;;;486.90;1971.20;;;;;;4950966;28;20048;-75
2021/04/02 09:38:12;;;;;;;19.33;11.15;;;487.10;1971.20;;;;;;4943855;29;20065;-79
2021/04/02 09:40:42;;;;;;;19.60;11.82;;;487.30;1971.20;;;;;;4958535;28;20480;-78
2021/04/02 09:43:07;;;;;;;20.10;11.18;;;487.30;1945.60;;;;;;4942816;29;20027;-78
2021/04/02 09:45:34;;;;;;;17.70;12.00;;;512.00;1945.60;;;;;;4945392;29;20039;-78
2021/04/02 09:48:02;;;;;;;20.67;12.77;;;512.00;1920.00;;;;;;4936562;29;20043;-71
2021/04/02 09:50:27;;;;;;;24.73;12.25;;;487.20;1894.40;;;;;;4946548;29;20027;-76
2021/04/02 09:52:55;;;;;;;22.75;13.25;;;487.30;1945.60;;;;;;4954419;28;20030;-70
2021/04/02 09:55:21;;;;;;;20.90;12.55;;;487.30;1945.60;;;;;;4949361;28;20039;-74
2021/04/02 09:57:47;;;;;;;25.27;14.05;;;512.10;1894.40;;;;;;4945266;29;20031;-74
2021/04/02 10:00:14;;;;;;;23.13;15.23;;;512.00;1894.40;;;;;;4945183;29;20111;-74
2021/04/02 10:02:40;;;;;;;27.10;14.45;;;487.30;1894.40;;;;;;4948275;28;20023;-74
2021/04/02 10:05:08;;;;;;;20.33;13.68;;;487.20;1868.80;;;;;;4947792;29;20031;-75
2021/04/02 10:07:34;;;;;;;22.45;14.43;;;487.20;1894.40;;;;;;4947274;29;20024;-75
2021/04/02 10:10:00;;;;;;;26.20;15.20;;;487.20;1894.40;;;;;;4943272;29;20433;-75
2021/04/02 10:12:27;;;;;;;25.73;16.05;;;487.10;1894.40;;;;;;4941350;29;20049;-74
2021/04/02 10:14:53;;;;;;;18.98;13.07;;;487.30;1894.40;;;;;;4955406;28;20451;-75
2021/04/02 10:17:19;;;;;;;19.25;12.93;;;487.10;1894.40;;;;;;4940814;29;20528;-75
2021/04/02 10:19:45;;;;;;;36.08;13.25;;;487.10;1894.40;;;;;;4937101;29;20030;-75
2021/04/02 10:22:11;;;;;;;23.48;12.45;;;487.20;1920.00;;;;;;4939756;29;20040;-75
2021/04/02 10:24:37;;;;;;;18.33;12.18;;;487.20;1920.00;;;;;;4956970;28;20090;-74
2021/04/02 10:27:03;;;;;;;21.60;13.07;;;487.30;1894.40;;;;;;4951881;29;20432;-73
2021/04/02 10:29:29;;;;;;;22.10;12.02;;;512.00;1894.40;;;;;;4944232;28;20028;-73
2021/04/02 10:31:55;;;;;;;26.50;14.18;;;512.00;1894.40;;;;;;4951978;28;20027;-74
2021/04/02 10:34:22;;;;;;;17.70;11.88;;;512.00;1920.00;;;;;;4952290;28;20031;-74
2021/04/02 10:36:47;;;;;;;21.25;13.02;;;512.00;1920.00;;;;;;4958754;28;20615;-74
2021/04/02 10:39:13;;;;;;;16.77;11.55;;;512.10;1868.80;;;;;;4958690;28;20058;-73
2021/04/02 10:41:39;;;;;;;22.60;11.98;;;512.00;1894.40;;;;;;4955760;29;20035;-72
2021/04/02 10:44:06;;;;;;;22.02;11.85;;;512.00;1894.40;;;;;;4945056;29;20031;-77
2021/04/02 10:46:31;;;;;;;21.58;13.35;;;512.00;1792.00;;;;;;4930217;29;20036;-75
2021/04/02 10:48:57;;;;;;;23.77;12.50;;;487.30;1792.00;;;;;;4953410;29;20396;-80
2021/04/02 10:51:25;;;;;;;22.40;12.35;;;512.10;1766.40;;;;;;4940685;28;20392;-74
2021/04/02 10:54:00;;;;;;;24.67;13.55;;;512.00;1766.40;;;;;;4955098;28;20028;-77
2021/04/02 10:56:26;;;;;;;22.80;12.35;;;512.00;1766.40;;;;;;4956072;28;20110;-77
2021/04/02 10:58:52;;;;;;;24.55;12.32;;;512.10;1766.40;;;;;;4941123;28;20126;-76
2021/04/02 11:01:18;;;;;;;22.60;13.38;;;512.20;1766.40;;;;;;4950548;29;20106;-77
2021/04/02 11:03:43;;;;;;;22.60;14.93;;;512.30;1740.80;;;;;;4955985;28;20027;-72
2021/04/02 11:06:09;;;;;;;23.23;12.75;;;512.40;1766.40;;;;;;4940795;28;20036;-73
2021/04/02 11:08:35;;;;;;;23.83;14.98;;;512.50;1766.40;;;;;;4904594;29;20922;-71
2021/04/02 11:11:00;;;;;;;28.17;15.00;;;512.60;1740.80;;;;;;4919471;28;20031;-75
2021/04/02 11:13:26;;;;;;;24.00;13.27;;;512.70;1715.20;;;;;;4939412;28;20030;-78
2021/04/02 11:15:52;;;;;;;26.85;14.40;;;512.70;1689.60;;;;;;4936416;28;20540;-76
2021/04/02 11:18:17;;;;;;;26.30;13.77;;;512.60;1664.00;;;;;;4929089;29;20118;-74
2021/04/02 11:20:44;;;;;;;25.92;13.75;;;512.60;1715.20;;;;;;4929314;29;20406;-75
2021/04/02 11:23:10;;;;;;;23.92;13.02;;;512.50;1715.20;;;;;;4927296;29;20039;-72
2021/04/02 11:25:36;;;;;;;24.38;12.35;;;512.50;1689.60;;;;;;4929423;29;20036;-73
2021/04/02 11:28:01;;;;;;;20.50;12.20;;;512.50;1689.60;;;;;;4932822;29;20078;-73
2021/04/02 11:30:27;;;;;;;21.58;11.57;;;512.40;1689.60;;;;;;4930515;29;20024;-76
2021/04/02 11:32:53;;;;;;;21.23;10.52;;;512.30;1689.60;;;;;;4916547;29;20047;-74
2021/04/02 11:35:19;;;;;;;24.15;10.65;;;512.20;1689.60;;;;;;4908246;29;20035;-75
2021/04/02 11:37:45;;;;;;;26.50;10.73;;;512.10;1612.80;;;;;;4926507;29;20443;-71
2021/04/02 11:40:14;;;;;;;25.30;12.52;;;512.00;1587.20;;;;;;4924547;29;20107;-77
2021/04/02 11:42:40;;;;;;;32.88;14.18;;;487.30;1587.20;;;;;;4920803;29;20091;-74
2021/04/02 11:45:06;;;;;;;25.95;13.30;;;487.30;1638.40;;;;;;4929594;29;20502;-76
2021/04/02 11:47:32;;;;;;;37.45;19.02;;;487.30;1612.80;;;;;;4928959;29;20115;-73
2021/04/02 11:49:58;;;;;;;29.45;17.23;;;487.20;1664.00;;;;;;4918832;29;20030;-77
2021/04/02 11:52:25;;;;;;;26.35;16.00;;;487.10;1740.80;;;;;;4933267;29;20031;-76
2021/04/02 11:54:51;;;;;;;30.88;18.23;;;487.00;1766.40;;;;;;4925975;29;20385;-73
2021/04/02 11:57:17;;;;;;;31.30;17.70;;;486.90;1766.40;;;;;;4926017;29;20040;-76
2021/04/02 11:59:43;;;;;;;28.25;16.33;;;486.90;1945.60;;;;;;4924451;29;20035;-76
2021/04/02 12:02:09;;;;;;;28.80;16.02;;;486.80;1843.20;;;;;;4916939;29;20497;-73
2021/04/02 12:04:34;;;;;;;27.00;15.50;;;486.80;1843.20;;;;;;4934187;29;20030;-78
2021/04/02 12:07:00;;;;;;;24.30;14.38;;;486.70;1894.40;;;;;;4930580;29;20394;-75
2021/04/02 12:09:26;;;;;;;24.25;14.02;;;486.70;1920.00;;;;;;4934650;29;20028;-76
2021/04/02 12:11:52;;;;;;;32.83;14.10;;;486.80;1945.60;;;;;;4919200;29;20106;-77
2021/04/02 12:14:18;;;;;;;32.90;15.10;;;486.80;1945.60;;;;;;4927425;29;20114;-77
2021/04/02 12:16:44;;;;;;;28.00;14.57;;;486.90;1945.60;;;;;;4939093;29;20047;-72
2021/04/02 12:19:09;;;;;;;27.33;14.57;;;486.90;1945.60;;;;;;4941598;29;20040;-77
2021/04/02 12:21:35;;;;;;;33.08;15.48;;;486.90;1920.00;;;;;;4954419;28;20027;-77
2021/04/02 12:24:03;;;;;;;26.40;14.05;;;486.90;1945.60;;;;;;4954064;29;20111;-78